Saint Agatha, ME (04772)

1:59 AM EDT on April 30, 2017 (GMT -0400)
K1FTK | | Change Station

Elev 825 ft 47.25 °N, 68.35 °W | Updated 9 minutes ago

Mostly Cloudy
Mostly Cloudy
35.0 °F
Feels Like 27 °F
N
12.0
Wind Variable Wind from NW
Gusts 12.0 mph

Today
High -- | Low -- °F
--% Chance of Precip.
Yesterday
High -- | Low -- °F
Precip. -- in
Pressure 30.06 in
Visibility 10.0 miles
Clouds Overcast 3700 ft
Windchill 27 °F
Dew Point 24 °F
Humidity 65%
Rainfall 0.00 in
Snow Depth Not available.
5:18 AM 7:43 PM
Waxing Crescent, 20% visible
METAR KFVE 300553Z AUTO 32015G21KT 10SM OVC037 01/M07 A3004 RMK AO2 PK WND 33032/0515 SLP177 60000 T00111072 10050 20011 53020
Pressure 30.06 in
Visibility 10.0 miles
Clouds Overcast 3700 ft
Windchill 27 °F
Dew Point 24 °F
Humidity 65%
Rainfall 0.00 in
Snow Depth Not available.
5:18 AM 7:43 PM
Waxing Crescent, 20% visible
METAR KFVE 300553Z AUTO 32015G21KT 10SM OVC037 01/M07 A3004 RMK AO2 PK WND 33032/0515 SLP177 60000 T00111072 10050 20011 53020

Get Severe Weather Alerts

Thanks for signing up!

Be on the lookout for a verification email in your inbox.

You'll start receiving the daily forecast at 8 AM.

×

10-Day Weather Forecast

Almanac

Astronomy

Apr. 30, 2017 Rise Set
Actual Time
Civil Twilight
Nautical Twilight
Astronomical Twilight
Moon
Length of Visible Light
Length of Day
Tomorrow will be .
, % of the Moon is Illuminated

Today's Extremes

State Highs State Lows

Community

WunderPhotos

WunderBlog® & News

Nearby

Air Quality

  Air Quality AQ Index Pollutant
Not available.

Snow Depth

Station Depth Elevation

Earthquake Activity

City Distance Mag. Time & Date
Minimum magnitude displayed is 2.5.

Coastal Water Temperatures

Place Temperature

Stations

Nearby Weather Stations

Station Location Temp. Windchill Dew Point Humidity Wind Precip. Elev Updated Type
                   

Watches & Warnings

There are currently no watches in effect.